Sanbornton, NH

5:34 AM EST on December 25, 2014 (GMT -0500)
Plymouth | Change Station
CLOSE
Current Station
Airport
Location: Plymouth,
Elevation: 505 ft
Nearby Weather Stations
Active Advisory: Areal Flood Watch

Elev 505 ft 43.78 °N, 71.76 °W | Updated 19 minutes ago

Fog
Fog
35 °F
Feels Like 35 °F
N
0
Wind Variable Wind from North

Today
High -- | Low -- °F
--% Chance of Precip.
Yesterday
High -- | Low -- °F
Precip. -- in
7:18 AM 4:15 PM
Waxing Crescent, 15% visible
Pressure 29.42 in
Visibility 0.8 miles
Clouds Overcast 200 ft
Dew Point 35 °F
Humidity 100%
Rainfall 0.00 in
Snow Depth Not available.
UV 0 out of 12
Pollen .10 out of 12
Air Quality Not available.
Flu Activity Not available.
METAR K1P1 251015Z AUTO 00000KT 3/4SM -RA OVC002 02/02 A2942 RMK AO2 T00150015

More Conditions Fewer Conditions

Pressure 29.42 in
Visibility 0.8 miles
Clouds Overcast 200 ft
Dew Point 35 °F
Humidity 100%
Rainfall 0.00 in
Snow Depth Not available.
UV 0 out of 12
Pollen .10 out of 12
Air Quality Not available.
Flu Activity Not available.
METAR K1P1 251015Z AUTO 00000KT 3/4SM -RA OVC002 02/02 A2942 RMK AO2 T00150015

More Conditions Fewer Conditions

10-Day Weather Forecast

Almanac

Astronomy

Dec. 25, 2014 Rise Set
Actual Time
Civil Twilight
Nautical Twilight
Astronomical Twilight
Moon
Length of Visible Light
Length of Day
Tomorrow will be .
, % of the Moon is Illuminated

Today's Extremes

State Highs State Lows

Community

WunderPhotos

Upload Photos

1,780,254 photos uploaded!

WunderBlogs® & News

Nearby

Air Quality

  Air Quality AQ Index Pollutant
Not available.

Snow Depth

Station Depth Elevation

Earthquake Activity

City Distance Mag. Time & Date
Minimum magnitude displayed is 2.5.

Coastal Water Temperatures

Place Temperature

Nearby Weather Stations